createdAt,value
2022-10-18T00:02:35.677Z,24.90
2022-10-18T00:05:20.634Z,26.30
2022-10-18T00:08:05.667Z,28.48
2022-10-18T00:10:50.955Z,26.15
2022-10-18T00:13:36.273Z,25.75
2022-10-18T00:16:21.232Z,27.33
2022-10-18T00:19:06.260Z,26.70
2022-10-18T00:21:51.113Z,23.13
2022-10-18T00:24:36.051Z,25.83
2022-10-18T00:27:21.062Z,25.90
2022-10-18T00:30:06.495Z,27.40
2022-10-18T00:32:51.707Z,31.35
2022-10-18T00:35:36.622Z,33.10
2022-10-18T00:38:21.597Z,31.70
2022-10-18T00:41:09.191Z,30.23
2022-10-18T00:44:05.202Z,29.30
2022-10-18T00:46:52.285Z,26.50
2022-10-18T00:49:41.803Z,27.35
2022-10-18T00:52:41.731Z,25.88
2022-10-18T00:55:27.890Z,25.15
2022-10-18T00:58:15.847Z,22.48
2022-10-18T01:01:00.624Z,21.50
2022-10-18T01:03:45.498Z,24.02
2022-10-18T01:06:32.058Z,22.90
2022-10-18T01:09:45.383Z,24.02
2022-10-18T01:13:02.420Z,26.08
2022-10-18T01:18:45.964Z,24.48
2022-10-18T01:21:47.752Z,26.38
2022-10-18T01:24:49.101Z,24.60
2022-10-18T01:27:56.612Z,22.40
2022-10-18T01:30:53.431Z,25.23
2022-10-18T01:36:32.568Z,27.10
2022-10-18T01:39:26.062Z,24.17
2022-10-18T01:42:13.331Z,29.13
2022-10-18T01:45:00.792Z,24.77
2022-10-18T01:47:47.776Z,24.77
2022-10-18T01:50:34.721Z,24.10
2022-10-18T01:53:32.250Z,27.45
2022-10-18T01:56:46.479Z,26.08
2022-10-18T01:59:31.218Z,27.67
2022-10-18T02:02:47.380Z,28.08
2022-10-18T02:05:39.963Z,29.05
2022-10-18T02:09:07.971Z,25.75
2022-10-18T02:11:54.514Z,26.45
2022-10-18T02:14:42.320Z,24.92
2022-10-18T02:17:29.626Z,30.00
2022-10-18T02:20:19.965Z,25.00
2022-10-18T02:23:10.188Z,29.05
2022-10-18T02:25:55.614Z,29.05
2022-10-18T02:28:41.074Z,26.25
2022-10-18T02:31:28.938Z,28.58
2022-10-18T02:34:25.146Z,26.23
2022-10-18T02:37:10.845Z,26.55
2022-10-18T02:39:56.480Z,27.25
2022-10-18T02:42:48.926Z,27.52
2022-10-18T02:45:33.913Z,27.13
2022-10-18T02:48:18.554Z,25.55
2022-10-18T02:51:03.465Z,27.45
2022-10-18T02:53:48.359Z,26.35
2022-10-18T02:56:33.913Z,24.33
2022-10-18T02:59:18.884Z,27.75
2022-10-18T03:02:04.035Z,27.50
2022-10-18T03:04:48.882Z,30.38
2022-10-18T03:07:34.192Z,28.92
2022-10-18T03:10:19.370Z,25.23
2022-10-18T03:13:04.533Z,27.25
2022-10-18T03:15:49.507Z,24.35
2022-10-18T03:18:34.719Z,27.42
2022-10-18T03:21:19.698Z,26.70
2022-10-18T03:24:05.146Z,26.80
2022-10-18T03:26:50.142Z,26.73
2022-10-18T03:29:34.960Z,26.67
2022-10-18T03:32:19.854Z,25.63
2022-10-18T03:35:05.659Z,26.58
2022-10-18T03:37:50.652Z,25.45
2022-10-18T03:40:35.699Z,26.42
2022-10-18T03:43:20.717Z,25.15
2022-10-18T03:46:05.647Z,29.50
2022-10-18T03:48:50.475Z,20.15
2022-10-18T03:51:35.500Z,23.92
2022-10-18T03:54:20.354Z,25.60
2022-10-18T03:57:05.244Z,25.90
2022-10-18T03:59:50.223Z,30.27
2022-10-18T04:02:35.234Z,24.83
2022-10-18T04:05:20.341Z,28.42
2022-10-18T04:08:05.413Z,26.98
2022-10-18T04:10:51.953Z,24.20
2022-10-18T04:13:36.932Z,22.00
2022-10-18T04:16:22.370Z,25.33
2022-10-18T04:19:07.408Z,23.73
2022-10-18T04:21:52.279Z,27.25
2022-10-18T04:24:38.548Z,23.58
2022-10-18T04:27:23.628Z,22.23
2022-10-18T04:30:08.986Z,23.35
2022-10-18T04:32:53.623Z,23.45
2022-10-18T04:35:38.477Z,24.70
2022-10-18T04:38:23.893Z,23.27
2022-10-18T04:41:08.627Z,24.75
2022-10-18T04:43:53.612Z,26.63
2022-10-18T04:46:38.535Z,24.48
2022-10-18T04:49:23.520Z,25.40
2022-10-18T04:52:08.801Z,24.13
2022-10-18T04:54:53.996Z,23.48
2022-10-18T04:57:38.982Z,27.08
2022-10-18T05:00:23.860Z,23.48
2022-10-18T05:03:10.801Z,23.52
2022-10-18T05:06:03.605Z,25.25
2022-10-18T05:08:49.137Z,33.97
2022-10-18T05:11:34.399Z,38.97
2022-10-18T05:14:19.429Z,40.95
2022-10-18T05:17:04.572Z,31.98
2022-10-18T05:19:49.422Z,25.67
2022-10-18T05:22:34.358Z,26.23
2022-10-18T05:25:19.704Z,27.08
2022-10-18T05:28:10.939Z,26.38
2022-10-18T05:31:07.904Z,29.38
2022-10-18T05:33:52.612Z,27.80
2022-10-18T05:36:37.738Z,28.20
2022-10-18T05:39:22.622Z,23.60
2022-10-18T05:42:08.966Z,23.13
2022-10-18T05:44:55.132Z,22.40
2022-10-18T05:47:40.621Z,22.15
2022-10-18T05:50:28.177Z,21.80
2022-10-18T05:53:35.257Z,20.17
2022-10-18T05:56:19.465Z,20.17
2022-10-18T05:59:07.385Z,22.38
2022-10-18T06:01:52.213Z,17.77
2022-10-18T06:04:37.356Z,17.92
2022-10-18T06:07:22.689Z,16.80
2022-10-18T06:10:08.147Z,18.48
2022-10-18T06:12:53.204Z,20.17
2022-10-18T06:15:38.235Z,21.10
2022-10-18T06:18:23.459Z,19.15
2022-10-18T06:21:12.107Z,16.67
2022-10-18T06:23:58.966Z,19.27
2022-10-18T06:26:44.421Z,19.48
2022-10-18T06:29:29.714Z,13.93
2022-10-18T06:32:41.560Z,17.55
2022-10-18T06:35:26.840Z,18.15
2022-10-18T06:38:13.412Z,14.90
2022-10-18T06:40:59.860Z,17.55
2022-10-18T06:43:53.494Z,17.05
2022-10-18T06:46:39.761Z,15.93
2022-10-18T06:49:24.650Z,15.63
2022-10-18T06:52:09.865Z,16.60
2022-10-18T06:54:54.607Z,16.30
2022-10-18T06:57:39.545Z,15.27
2022-10-18T07:00:24.475Z,14.18
2022-10-18T07:03:09.465Z,17.08
2022-10-18T07:05:54.473Z,17.73
2022-10-18T07:08:40.595Z,18.10
2022-10-18T07:11:27.186Z,14.90
2022-10-18T07:14:16.181Z,17.02
2022-10-18T07:17:01.648Z,16.85
2022-10-18T07:19:46.822Z,14.80
2022-10-18T07:22:31.765Z,18.17
2022-10-18T07:25:17.196Z,13.45
2022-10-18T07:28:02.833Z,15.15
2022-10-18T07:30:52.989Z,16.10
2022-10-18T07:33:48.879Z,13.75
2022-10-18T07:36:36.363Z,13.85
2022-10-18T07:39:24.779Z,13.23
2022-10-18T07:42:09.852Z,17.73
2022-10-18T07:45:01.592Z,13.90
2022-10-18T07:47:54.759Z,13.82
2022-10-18T07:50:40.030Z,14.40
2022-10-18T07:53:25.712Z,13.25
2022-10-18T07:56:21.570Z,18.42
2022-10-18T07:59:12.708Z,13.00
2022-10-18T08:02:05.314Z,14.20
2022-10-18T08:04:53.014Z,11.95
2022-10-18T08:07:39.421Z,13.55
2022-10-18T08:10:30.678Z,15.93
2022-10-18T08:13:17.421Z,12.23
2022-10-18T08:16:49.654Z,11.40
2022-10-18T08:19:34.799Z,12.82
2022-10-18T08:22:22.347Z,12.18
2022-10-18T08:25:07.855Z,11.73
2022-10-18T08:27:52.819Z,15.45
2022-10-18T08:30:37.749Z,10.43
2022-10-18T08:33:23.329Z,13.13
2022-10-18T08:36:12.754Z,12.35
2022-10-18T08:38:59.612Z,12.10
2022-10-18T08:42:09.485Z,10.90
2022-10-18T08:48:46.494Z,11.02
2022-10-18T08:51:48.223Z,9.75
2022-10-18T08:55:02.551Z,10.38
2022-10-18T08:57:50.298Z,13.32
2022-10-18T09:00:40.284Z,9.23
2022-10-18T09:03:52.852Z,12.90
2022-10-18T09:06:58.597Z,12.00
2022-10-18T09:10:22.012Z,9.25
2022-10-18T09:13:29.504Z,13.63
2022-10-18T09:16:25.347Z,14.07
2022-10-18T09:19:40.317Z,10.13
2022-10-18T09:22:52.053Z,9.80
2022-10-18T09:26:06.938Z,10.00
2022-10-18T09:29:10.480Z,10.25
2022-10-18T09:32:09.010Z,10.20
2022-10-18T09:35:00.893Z,11.38
2022-10-18T09:37:47.384Z,10.20
2022-10-18T09:40:38.433Z,10.38
2022-10-18T09:43:38.324Z,11.02
2022-10-18T09:46:38.848Z,12.48
2022-10-18T09:49:49.491Z,8.88
2022-10-18T09:53:03.039Z,8.52
2022-10-18T09:56:18.617Z,10.98
2022-10-18T10:03:18.029Z,11.02
2022-10-18T10:06:17.349Z,10.55
2022-10-18T10:09:14.145Z,8.27
2022-10-18T10:11:59.468Z,9.02
2022-10-18T10:14:44.517Z,11.38
2022-10-18T10:17:32.986Z,8.82
2022-10-18T10:20:31.175Z,12.05
2022-10-18T10:26:30.491Z,7.80
2022-10-18T10:29:50.941Z,9.88
2022-10-18T10:32:51.438Z,12.05
2022-10-18T10:35:56.109Z,11.75
2022-10-18T10:38:41.047Z,8.68
2022-10-18T10:41:27.101Z,11.27
2022-10-18T10:44:20.089Z,12.00
2022-10-18T10:47:05.745Z,13.60
2022-10-18T10:50:27.565Z,12.80
2022-10-18T10:53:27.206Z,14.40
2022-10-18T10:56:22.092Z,11.43
2022-10-18T10:59:15.767Z,11.05
2022-10-18T11:02:17.149Z,13.82
2022-10-18T11:05:25.261Z,10.95
2022-10-18T11:08:16.922Z,13.48
2022-10-18T11:11:13.158Z,13.77
2022-10-18T11:14:31.577Z,12.70
2022-10-18T11:17:25.304Z,14.88
2022-10-18T11:20:19.137Z,12.18
2022-10-18T11:23:12.285Z,11.80
2022-10-18T11:26:12.693Z,12.55
2022-10-18T11:29:05.150Z,12.75
2022-10-18T11:32:02.171Z,13.02
2022-10-18T11:35:12.911Z,10.68
2022-10-18T11:38:15.164Z,10.38
2022-10-18T11:41:26.379Z,10.90
2022-10-18T11:44:29.884Z,14.20
2022-10-18T11:47:40.140Z,13.13
2022-10-18T11:50:47.662Z,12.35
2022-10-18T11:53:52.020Z,14.43
2022-10-18T11:56:59.022Z,15.57
2022-10-18T12:00:11.497Z,11.98
2022-10-18T12:02:59.699Z,16.05
2022-10-18T12:05:48.022Z,12.85
2022-10-18T12:08:41.263Z,12.65
2022-10-18T12:11:32.101Z,19.15
2022-10-18T12:14:34.611Z,13.38
2022-10-18T12:17:46.357Z,11.00
2022-10-18T12:20:48.243Z,11.32
2022-10-18T12:23:50.652Z,12.85
2022-10-18T12:26:35.975Z,10.13
2022-10-18T12:29:23.864Z,10.75
2022-10-18T12:32:14.011Z,10.88
2022-10-18T12:35:12.432Z,10.55
2022-10-18T12:38:11.574Z,10.50
2022-10-18T12:40:59.321Z,12.80
2022-10-18T12:43:51.609Z,11.60
2022-10-18T12:46:50.621Z,13.10
2022-10-18T12:49:40.175Z,15.60
2022-10-18T12:52:31.572Z,12.65
2022-10-18T12:55:19.226Z,12.65
2022-10-18T12:58:28.137Z,12.13
2022-10-18T13:01:13.143Z,13.80
2022-10-18T13:03:58.579Z,17.15
2022-10-18T13:07:04.538Z,12.43
2022-10-18T13:10:13.301Z,14.23
2022-10-18T13:16:50.123Z,12.70
2022-10-18T13:20:02.843Z,12.73
2022-10-18T13:23:23.793Z,13.98
2022-10-18T13:26:23.209Z,11.55
2022-10-18T13:29:29.534Z,12.57
2022-10-18T13:32:23.448Z,11.00
2022-10-18T13:35:46.283Z,10.98
2022-10-18T13:38:39.795Z,10.40
2022-10-18T13:41:45.022Z,12.57
2022-10-18T13:44:39.909Z,8.80
2022-10-18T13:47:36.164Z,12.05
2022-10-18T13:50:35.751Z,10.75
2022-10-18T13:53:36.651Z,10.82
2022-10-18T13:56:38.540Z,11.98
2022-10-18T13:59:33.182Z,12.80
2022-10-18T14:02:59.946Z,13.60
2022-10-18T14:06:02.280Z,14.77
2022-10-18T14:09:01.175Z,23.58
2022-10-18T14:12:02.663Z,17.40
2022-10-18T14:15:20.068Z,21.75
2022-10-18T14:18:13.068Z,16.13
2022-10-18T14:21:14.604Z,12.40
2022-10-18T14:24:00.538Z,16.83
2022-10-18T14:26:45.377Z,24.98
2022-10-18T14:29:30.256Z,24.45
2022-10-18T14:32:31.014Z,31.92
2022-10-18T14:35:33.727Z,26.25
2022-10-18T14:38:22.442Z,20.20
2022-10-18T14:41:17.579Z,18.08
2022-10-18T14:44:29.891Z,18.35
2022-10-18T14:47:26.800Z,16.05
2022-10-18T14:50:23.886Z,17.77
2022-10-18T14:53:15.796Z,17.90
2022-10-18T14:56:03.610Z,17.13
2022-10-18T14:58:48.553Z,13.98
2022-10-18T15:01:35.710Z,15.15
2022-10-18T15:04:26.330Z,20.25
2022-10-18T15:07:17.134Z,19.08
2022-10-18T15:10:04.849Z,27.67
2022-10-18T15:13:08.651Z,28.98
2022-10-18T15:15:55.452Z,29.52
2022-10-18T15:18:41.138Z,33.85
2022-10-18T15:21:28.466Z,32.58
2022-10-18T15:24:25.604Z,34.90
2022-10-18T15:27:20.143Z,33.95
2022-10-18T15:30:16.353Z,35.75
2022-10-18T15:33:03.702Z,29.33
2022-10-18T15:35:48.964Z,31.77
2022-10-18T15:38:36.119Z,28.88
2022-10-18T15:41:38.379Z,29.77
2022-10-18T15:44:34.209Z,30.92
2022-10-18T15:47:21.127Z,42.58
2022-10-18T15:50:37.335Z,69.35
2022-10-18T15:53:23.115Z,58.55
2022-10-18T15:56:33.994Z,50.75
2022-10-18T15:59:30.203Z,61.97
2022-10-18T16:02:15.675Z,78.57
2022-10-18T16:05:02.256Z,73.05
2022-10-18T16:07:54.110Z,57.20
2022-10-18T16:10:40.497Z,52.97
2022-10-18T16:13:26.764Z,40.28
2022-10-18T16:16:21.482Z,40.55
2022-10-18T16:19:13.850Z,52.00
2022-10-18T16:22:06.121Z,38.47
2022-10-18T16:24:52.208Z,40.95
2022-10-18T16:27:37.198Z,46.28
2022-10-18T16:30:27.837Z,42.78
2022-10-18T16:33:14.155Z,30.77
2022-10-18T16:36:04.016Z,28.05
2022-10-18T16:38:49.864Z,31.05
2022-10-18T16:41:35.066Z,28.08
2022-10-18T16:44:20.163Z,25.23
2022-10-18T16:47:04.867Z,30.17
2022-10-18T16:49:52.635Z,27.20
2022-10-18T16:52:37.782Z,33.65
2022-10-18T16:55:24.415Z,30.38
2022-10-18T16:58:18.552Z,27.27
2022-10-18T17:01:06.767Z,26.80
2022-10-18T17:03:54.751Z,26.25
2022-10-18T17:06:39.543Z,25.95
2022-10-18T17:09:24.623Z,28.88
2022-10-18T17:12:09.399Z,27.33
2022-10-18T17:14:54.453Z,29.67
2022-10-18T17:17:39.555Z,30.67
2022-10-18T17:20:25.873Z,33.15
2022-10-18T17:23:11.550Z,31.52
2022-10-18T17:26:06.861Z,37.20
2022-10-18T17:28:56.504Z,37.50
2022-10-18T17:31:41.648Z,37.20
2022-10-18T17:34:26.309Z,37.42
2022-10-18T17:37:11.173Z,35.35
2022-10-18T17:39:56.243Z,34.47
2022-10-18T17:42:41.150Z,29.08
2022-10-18T17:45:26.573Z,31.30
2022-10-18T17:48:11.447Z,29.08
2022-10-18T17:50:56.513Z,31.63
2022-10-18T17:53:41.499Z,31.92
2022-10-18T17:56:30.530Z,34.20
2022-10-18T17:59:15.272Z,31.02
2022-10-18T18:02:00.431Z,32.95
2022-10-18T18:04:45.372Z,32.70
2022-10-18T18:07:30.619Z,28.70
2022-10-18T18:10:15.660Z,30.15
2022-10-18T18:13:01.428Z,26.00
2022-10-18T18:15:45.911Z,30.27
2022-10-18T18:18:31.024Z,27.70
2022-10-18T18:21:16.552Z,28.08
2022-10-18T18:24:01.945Z,30.48
2022-10-18T18:26:46.642Z,29.70
2022-10-18T18:29:31.698Z,28.80
2022-10-18T18:32:16.649Z,28.00
2022-10-18T18:35:01.524Z,34.78
2022-10-18T18:37:50.477Z,30.27
2022-10-18T18:40:35.365Z,35.42
2022-10-18T18:43:23.683Z,31.40
2022-10-18T18:46:09.584Z,29.73
2022-10-18T18:48:57.143Z,26.17
2022-10-18T18:51:42.070Z,33.60
2022-10-18T18:54:29.023Z,29.52
2022-10-18T18:57:14.057Z,30.60
2022-10-18T18:59:58.966Z,29.67
2022-10-18T19:02:44.092Z,31.23
2022-10-18T19:05:29.069Z,28.45
2022-10-18T19:08:13.988Z,37.22
2022-10-18T19:10:59.195Z,28.95
2022-10-18T19:13:44.821Z,29.17
2022-10-18T19:16:35.348Z,31.60
2022-10-18T19:19:23.236Z,28.60
2022-10-18T19:22:09.664Z,29.63
2022-10-18T19:24:54.591Z,31.80
2022-10-18T19:27:39.132Z,26.73
2022-10-18T19:30:24.201Z,26.05
2022-10-18T19:33:10.361Z,29.63
2022-10-18T19:35:55.332Z,32.53
2022-10-18T19:38:40.252Z,31.05
2022-10-18T19:44:16.845Z,30.58
2022-10-18T19:47:03.592Z,28.75
2022-10-18T19:49:48.691Z,27.88
2022-10-18T19:52:33.716Z,34.55
2022-10-18T19:55:19.124Z,28.98
2022-10-18T19:58:04.096Z,29.67
2022-10-18T20:00:53.884Z,28.98
2022-10-18T20:03:38.772Z,27.63
2022-10-18T20:06:23.838Z,31.02
2022-10-18T20:09:13.475Z,32.75
2022-10-18T20:12:01.380Z,30.88
2022-10-18T20:14:46.293Z,33.72
2022-10-18T20:17:32.082Z,28.80
2022-10-18T20:20:16.839Z,32.45
2022-10-18T20:23:01.754Z,35.28
2022-10-18T20:26:00.035Z,26.83
2022-10-18T20:28:45.988Z,30.45
2022-10-18T20:31:35.015Z,29.50
2022-10-18T20:34:25.066Z,32.20
2022-10-18T20:37:10.120Z,33.33
2022-10-18T20:39:55.189Z,30.50
2022-10-18T20:42:40.504Z,31.67
2022-10-18T20:45:25.557Z,34.90
2022-10-18T20:48:10.617Z,36.92
2022-10-18T20:50:55.402Z,38.78
2022-10-18T20:53:40.688Z,36.40
2022-10-18T20:56:30.894Z,39.55
2022-10-18T20:59:16.501Z,38.67
2022-10-18T21:02:01.211Z,34.97
2022-10-18T21:04:46.137Z,37.72
2022-10-18T21:07:31.324Z,32.83
2022-10-18T21:10:16.686Z,36.08
2022-10-18T21:13:01.599Z,38.08
2022-10-18T21:15:54.325Z,36.15
2022-10-18T21:18:39.862Z,30.83
2022-10-18T21:21:24.895Z,35.63
2022-10-18T21:24:11.380Z,32.63
2022-10-18T21:26:56.705Z,29.38
2022-10-18T21:29:41.414Z,34.15
2022-10-18T21:32:26.551Z,29.42
2022-10-18T21:35:11.507Z,33.03
2022-10-18T21:37:56.392Z,30.52
2022-10-18T21:40:44.020Z,28.52
2022-10-18T21:43:28.700Z,33.50
2022-10-18T21:46:16.303Z,32.00
2022-10-18T21:49:01.141Z,34.75
2022-10-18T21:51:46.156Z,29.83
2022-10-18T21:54:31.073Z,30.27
2022-10-18T21:57:15.869Z,30.63
2022-10-18T22:00:01.225Z,32.92
2022-10-18T22:02:45.812Z,30.60
2022-10-18T22:05:31.084Z,31.67
2022-10-18T22:08:15.770Z,31.80
2022-10-18T22:11:01.278Z,29.38
2022-10-18T22:13:46.321Z,33.63
2022-10-18T22:16:31.499Z,31.60
2022-10-18T22:19:16.334Z,32.00
2022-10-18T22:22:01.312Z,31.52
2022-10-18T22:24:47.683Z,30.98
2022-10-18T22:27:32.771Z,34.47
2022-10-18T22:30:17.864Z,34.38
2022-10-18T22:33:02.963Z,36.65
2022-10-18T22:35:51.060Z,33.10
2022-10-18T22:38:37.163Z,34.03
2022-10-18T22:41:21.893Z,36.47
2022-10-18T22:44:07.813Z,33.25
2022-10-18T22:46:53.089Z,35.97
2022-10-18T22:49:37.970Z,37.13
2022-10-18T22:52:23.229Z,35.10
2022-10-18T22:55:08.248Z,35.85
2022-10-18T22:57:54.973Z,35.67
2022-10-18T23:00:39.808Z,36.83
2022-10-18T23:03:24.721Z,34.83
2022-10-18T23:06:24.919Z,40.90
2022-10-18T23:09:10.895Z,34.55
2022-10-18T23:11:56.229Z,34.97
2022-10-18T23:14:41.126Z,39.50
2022-10-18T23:17:25.923Z,34.42
2022-10-18T23:20:10.859Z,36.58
2022-10-18T23:22:55.867Z,37.65
2022-10-18T23:25:40.785Z,35.72
2022-10-18T23:28:25.778Z,38.72
2022-10-18T23:31:14.064Z,38.40
2022-10-18T23:34:01.862Z,36.70
2022-10-18T23:36:46.913Z,36.38
2022-10-18T23:39:31.931Z,34.22
2022-10-18T23:42:16.926Z,39.30
2022-10-18T23:45:02.076Z,34.38
2022-10-18T23:47:47.040Z,37.25
2022-10-18T23:50:31.815Z,38.70
2022-10-18T23:53:19.109Z,38.88
2022-10-18T23:56:09.360Z,33.85
2022-10-18T23:58:56.008Z,32.70
